createdAt,value
2017-09-19T00:00:37.377Z,12.7
2017-09-19T00:01:45.921Z,12.66
2017-09-19T00:02:54.787Z,12.69
2017-09-19T00:04:03.333Z,12.71
2017-09-19T00:05:12.201Z,12.8
2017-09-19T00:06:21.065Z,12.78
2017-09-19T00:07:29.927Z,12.76
2017-09-19T00:08:38.467Z,12.74
2017-09-19T00:09:47.333Z,12.73
2017-09-19T00:10:56.847Z,12.66
2017-09-19T00:12:05.392Z,12.7
2017-09-19T00:13:13.938Z,12.74
2017-09-19T00:14:22.481Z,12.76
2017-09-19T00:15:31.348Z,12.7
2017-09-19T00:16:40.210Z,12.58
2017-09-19T00:17:49.402Z,12.69
2017-09-19T00:18:57.947Z,12.63
2017-09-19T00:20:06.489Z,12.58
2017-09-19T00:21:15.029Z,12.62
2017-09-19T00:22:23.573Z,12.55
2017-09-19T00:23:32.439Z,12.69
2017-09-19T00:24:40.982Z,12.66
2017-09-19T00:25:49.849Z,12.65
2017-09-19T00:26:59.364Z,12.55
2017-09-19T00:28:07.906Z,12.62
2017-09-19T00:29:17.974Z,12.65
2017-09-19T00:30:27.170Z,12.58
2017-09-19T00:31:35.713Z,12.69
2017-09-19T00:32:44.253Z,12.63
2017-09-19T00:33:53.438Z,12.66
2017-09-19T00:35:01.983Z,12.65
2017-09-19T00:36:10.849Z,12.66
2017-09-19T00:37:19.391Z,12.7
2017-09-19T00:38:28.574Z,12.7
2017-09-19T00:39:37.763Z,12.7
2017-09-19T00:40:46.302Z,12.73
2017-09-19T00:41:55.165Z,12.66
2017-09-19T00:43:03.707Z,12.66
2017-09-19T00:44:12.893Z,12.73
2017-09-19T00:45:21.435Z,12.73
2017-09-19T00:46:29.993Z,12.65
2017-09-19T00:47:38.516Z,12.7
2017-09-19T00:48:47.381Z,12.66
2017-09-19T00:49:56.242Z,12.7
2017-09-19T00:51:04.783Z,12.7
2017-09-19T00:52:13.323Z,12.65
2017-09-19T00:53:21.865Z,12.66
2017-09-19T00:54:30.729Z,12.66
2017-09-19T00:55:39.274Z,12.7
2017-09-19T00:56:47.815Z,12.73
2017-09-19T00:57:56.358Z,12.7
2017-09-19T00:59:04.901Z,12.7
2017-09-19T01:00:13.769Z,12.73
2017-09-19T01:01:22.313Z,12.7
2017-09-19T01:02:30.855Z,12.66
2017-09-19T01:03:39.400Z,12.71
2017-09-19T01:04:47.945Z,12.7
2017-09-19T01:05:56.812Z,12.63
2017-09-19T01:07:05.351Z,12.71
2017-09-19T01:08:14.215Z,12.69
2017-09-19T01:09:23.402Z,12.7
2017-09-19T01:10:32.595Z,12.71
2017-09-19T01:11:41.138Z,12.66
2017-09-19T01:12:49.682Z,12.63
2017-09-19T01:13:58.549Z,12.61
2017-09-19T01:15:07.092Z,12.69
2017-09-19T01:16:15.638Z,12.62
2017-09-19T01:17:24.832Z,12.65
2017-09-19T01:18:34.025Z,12.7
2017-09-19T01:19:42.568Z,12.66
2017-09-19T01:20:51.113Z,12.7
2017-09-19T01:21:59.980Z,12.66
2017-09-19T01:23:08.850Z,12.66
2017-09-19T01:24:17.389Z,12.65
2017-09-19T01:25:26.254Z,12.71
2017-09-19T01:26:35.121Z,12.63
2017-09-19T01:27:44.308Z,12.69
2017-09-19T01:28:52.848Z,12.66
2017-09-19T01:30:01.391Z,12.65
2017-09-19T01:31:09.933Z,12.7
2017-09-19T01:32:19.481Z,12.65
2017-09-19T01:33:28.672Z,12.65
2017-09-19T01:34:37.538Z,12.74
2017-09-19T01:35:46.084Z,12.7
2017-09-19T01:36:54.628Z,12.62
2017-09-19T01:38:03.172Z,12.61
2017-09-19T01:39:12.038Z,12.63
2017-09-19T01:40:20.907Z,12.66
2017-09-19T01:41:29.774Z,12.77
2017-09-19T01:42:38.642Z,12.71
2017-09-19T01:43:47.187Z,12.71
2017-09-19T01:44:55.725Z,12.65
2017-09-19T01:46:04.465Z,12.66
2017-09-19T01:47:13.334Z,12.59
2017-09-19T01:48:22.522Z,12.69
2017-09-19T01:49:31.392Z,12.61
2017-09-19T01:50:40.257Z,12.69
2017-09-19T01:51:48.799Z,12.66
2017-09-19T01:52:57.663Z,12.62
2017-09-19T01:54:06.528Z,12.65
2017-09-19T01:55:15.071Z,12.69
2017-09-19T01:56:23.940Z,12.69
2017-09-19T01:57:32.486Z,12.69
2017-09-19T01:58:41.349Z,12.66
2017-09-19T01:59:49.895Z,12.61
2017-09-19T02:00:58.434Z,12.69
2017-09-19T02:02:06.978Z,12.63
2017-09-19T02:03:15.519Z,12.62
2017-09-19T02:04:24.384Z,12.69
2017-09-19T02:05:33.251Z,12.65
2017-09-19T02:06:42.122Z,12.7
2017-09-19T02:07:50.664Z,12.71
2017-09-19T02:08:59.208Z,12.69
2017-09-19T02:10:07.755Z,12.78
2017-09-19T02:11:16.619Z,12.71
2017-09-19T02:12:25.485Z,12.66
2017-09-19T02:13:34.029Z,12.63
2017-09-19T02:14:42.571Z,12.66
2017-09-19T02:15:51.117Z,12.7
2017-09-19T02:16:59.659Z,12.71
2017-09-19T02:18:08.201Z,12.65
2017-09-19T02:19:16.744Z,12.69
2017-09-19T02:20:25.287Z,12.69
2017-09-19T02:21:34.149Z,12.66
2017-09-19T02:22:42.690Z,12.65
2017-09-19T02:23:51.235Z,12.66
2017-09-19T02:24:59.776Z,12.71
2017-09-19T02:26:08.639Z,12.63
2017-09-19T02:27:17.179Z,12.71
2017-09-19T02:28:26.050Z,12.8
2017-09-19T02:29:34.915Z,12.78
2017-09-19T02:30:44.102Z,12.73
2017-09-19T02:31:52.969Z,12.69
2017-09-19T02:33:02.154Z,12.76
2017-09-19T02:34:11.015Z,12.76
2017-09-19T02:35:19.557Z,12.77
2017-09-19T02:36:28.425Z,12.74
2017-09-19T02:37:37.290Z,12.77
2017-09-19T02:38:45.832Z,12.74
2017-09-19T02:39:54.373Z,12.78
2017-09-19T02:41:03.925Z,12.84
2017-09-19T02:42:12.472Z,12.8
2017-09-19T02:43:21.010Z,12.86
2017-09-19T02:44:29.878Z,12.76
2017-09-19T02:45:38.421Z,12.81
2017-09-19T02:46:47.287Z,12.76
2017-09-19T02:47:55.829Z,12.77
2017-09-19T02:49:04.368Z,12.78
2017-09-19T02:50:13.233Z,12.78
2017-09-19T02:51:22.424Z,12.81
2017-09-19T02:52:30.968Z,12.94
2017-09-19T02:53:39.514Z,12.84
2017-09-19T02:54:48.380Z,12.89
2017-09-19T02:55:56.922Z,12.88
2017-09-19T02:57:06.115Z,12.84
2017-09-19T02:58:15.310Z,12.86
2017-09-19T02:59:24.508Z,12.86
2017-09-19T03:00:33.374Z,12.88
2017-09-19T03:01:42.564Z,12.81
2017-09-19T03:02:51.105Z,12.86
2017-09-19T03:04:00.621Z,12.89
2017-09-19T03:05:09.488Z,12.91
2017-09-19T03:06:18.674Z,12.89
2017-09-19T03:07:27.214Z,12.92
2017-09-19T03:08:36.080Z,12.95
2017-09-19T03:09:44.643Z,12.92
2017-09-19T03:10:53.189Z,12.88
2017-09-19T03:12:01.737Z,12.94
2017-09-19T03:13:10.279Z,12.94
2017-09-19T03:14:19.469Z,12.91
2017-09-19T03:15:28.334Z,12.95
2017-09-19T03:16:36.877Z,12.92
2017-09-19T03:17:45.743Z,12.95
2017-09-19T03:18:55.260Z,12.92
2017-09-19T03:20:04.443Z,12.94
2017-09-19T03:21:13.310Z,12.92
2017-09-19T03:22:21.848Z,12.94
2017-09-19T03:23:31.035Z,12.95
2017-09-19T03:24:39.577Z,12.91
2017-09-19T03:25:48.445Z,12.92
2017-09-19T03:26:57.308Z,12.92
2017-09-19T03:28:05.854Z,12.91
2017-09-19T03:29:14.717Z,12.94
2017-09-19T03:30:23.583Z,12.86
2017-09-19T03:31:32.127Z,12.86
2017-09-19T03:32:40.672Z,12.88
2017-09-19T03:33:49.540Z,12.88
2017-09-19T03:34:58.407Z,12.89
2017-09-19T03:36:07.272Z,12.88
2017-09-19T03:37:15.815Z,12.88
2017-09-19T03:38:24.681Z,12.81
2017-09-19T03:39:33.543Z,12.88
2017-09-19T03:40:42.088Z,12.83
2017-09-19T03:41:50.630Z,12.81
2017-09-19T03:42:59.176Z,12.88
2017-09-19T03:44:07.718Z,12.88
2017-09-19T03:45:16.263Z,12.84
2017-09-19T03:46:25.128Z,12.86
2017-09-19T03:47:33.671Z,12.88
2017-09-19T03:48:42.538Z,12.78
2017-09-19T03:49:51.720Z,12.74
2017-09-19T03:51:00.262Z,12.76
2017-09-19T03:52:09.127Z,12.8
2017-09-19T03:53:17.672Z,12.76
2017-09-19T03:54:26.862Z,12.81
2017-09-19T03:55:35.724Z,12.89
2017-09-19T03:56:44.590Z,12.78
2017-09-19T03:57:53.129Z,12.71
2017-09-19T03:59:01.676Z,12.77
2017-09-19T04:00:10.863Z,12.78
2017-09-19T04:01:19.405Z,12.73
2017-09-19T04:02:27.945Z,12.73
2017-09-19T04:03:37.130Z,12.73
2017-09-19T04:04:45.669Z,12.77
2017-09-19T04:05:54.210Z,12.77
2017-09-19T04:07:03.078Z,12.74
2017-09-19T04:08:11.945Z,12.86
2017-09-19T04:09:20.487Z,12.71
2017-09-19T04:10:29.031Z,12.77
2017-09-19T04:11:37.570Z,12.81
2017-09-19T04:12:46.432Z,12.8
2017-09-19T04:13:55.626Z,12.8
2017-09-19T04:15:04.490Z,12.76
2017-09-19T04:16:13.032Z,12.81
2017-09-19T04:17:22.229Z,12.73
2017-09-19T04:18:31.130Z,12.8
2017-09-19T04:19:39.673Z,12.77
2017-09-19T04:20:48.214Z,12.76
2017-09-19T04:21:56.759Z,12.8
2017-09-19T04:23:05.628Z,12.76
2017-09-19T04:24:14.491Z,12.8
2017-09-19T04:25:23.040Z,12.81
2017-09-19T04:26:32.558Z,12.78
2017-09-19T04:27:41.424Z,12.77
2017-09-19T04:28:50.293Z,12.77
2017-09-19T04:29:59.162Z,12.88
2017-09-19T04:31:08.031Z,12.81
2017-09-19T04:32:16.897Z,12.77
2017-09-19T04:33:25.437Z,12.81
2017-09-19T04:34:34.309Z,12.78
2017-09-19T04:35:42.851Z,12.81
2017-09-19T04:36:51.388Z,12.88
2017-09-19T04:38:00.899Z,12.83
2017-09-19T04:39:10.086Z,12.88
2017-09-19T04:40:18.626Z,12.83
2017-09-19T04:41:27.491Z,12.88
2017-09-19T04:42:36.029Z,12.78
2017-09-19T04:43:44.894Z,12.8
2017-09-19T04:44:53.436Z,12.76
2017-09-19T04:46:01.977Z,12.88
2017-09-19T04:47:11.488Z,12.86
2017-09-19T04:48:21.711Z,12.74
2017-09-19T04:49:30.578Z,12.74
2017-09-19T04:50:39.123Z,12.78
2017-09-19T04:51:47.665Z,12.76
2017-09-19T04:52:56.209Z,12.84
2017-09-19T04:54:05.075Z,12.77
2017-09-19T04:55:14.262Z,12.74
2017-09-19T04:56:23.127Z,12.77
2017-09-19T04:57:32.320Z,12.8
2017-09-19T04:58:41.185Z,12.73
2017-09-19T04:59:49.724Z,12.73
2017-09-19T05:00:58.589Z,12.71
2017-09-19T05:02:07.456Z,12.71
2017-09-19T05:03:16.324Z,12.81
2017-09-19T05:04:24.868Z,12.8
2017-09-19T05:05:33.743Z,12.71
2017-09-19T05:06:42.604Z,12.78
2017-09-19T05:07:51.147Z,12.73
2017-09-19T05:08:59.687Z,12.76
2017-09-19T05:10:08.878Z,12.73
2017-09-19T05:11:17.742Z,12.76
2017-09-19T05:12:26.934Z,12.77
2017-09-19T05:13:35.802Z,12.81
2017-09-19T05:14:44.662Z,12.77
2017-09-19T05:15:53.532Z,12.77
2017-09-19T05:17:02.075Z,12.78
2017-09-19T05:18:11.262Z,12.77
2017-09-19T05:19:19.805Z,12.78
2017-09-19T05:20:29.323Z,12.76
2017-09-19T05:21:38.511Z,12.77
2017-09-19T05:22:47.056Z,12.78
2017-09-19T05:23:56.252Z,12.81
2017-09-19T05:25:05.438Z,12.76
2017-09-19T05:26:14.629Z,12.83
2017-09-19T05:27:23.492Z,12.86
2017-09-19T05:28:32.354Z,12.78
2017-09-19T05:29:40.896Z,12.81
2017-09-19T05:30:49.438Z,12.8
2017-09-19T05:31:58.302Z,12.83
2017-09-19T05:33:07.166Z,12.84
2017-09-19T05:34:15.712Z,12.88
2017-09-19T05:35:24.579Z,12.8
2017-09-19T05:36:33.122Z,12.88
2017-09-19T05:37:41.987Z,12.88
2017-09-19T05:38:50.860Z,12.91
2017-09-19T05:39:59.404Z,12.86
2017-09-19T05:41:07.946Z,12.89
2017-09-19T05:42:16.493Z,12.91
2017-09-19T05:43:25.036Z,12.92
2017-09-19T05:44:33.901Z,12.94
2017-09-19T05:45:42.442Z,12.96
2017-09-19T05:46:52.439Z,12.94
2017-09-19T05:48:01.627Z,12.94
2017-09-19T05:49:10.171Z,12.99
2017-09-19T05:50:19.035Z,12.98
2017-09-19T05:51:28.230Z,12.95
2017-09-19T05:52:36.836Z,12.94
2017-09-19T05:53:45.380Z,12.95
2017-09-19T05:54:54.248Z,12.98
2017-09-19T05:56:02.788Z,12.99
2017-09-19T05:57:11.654Z,12.98
2017-09-19T05:58:20.195Z,12.95
2017-09-19T05:59:29.061Z,13.01
2017-09-19T06:00:37.606Z,12.94
2017-09-19T06:01:46.144Z,12.94
2017-09-19T06:02:54.689Z,13.01
2017-09-19T06:04:03.879Z,13.07
2017-09-19T06:05:12.421Z,13.09
2017-09-19T06:06:20.966Z,13.06
2017-09-19T06:07:29.506Z,12.98
2017-09-19T06:08:38.047Z,13.07
2017-09-19T06:09:46.915Z,13.1
2017-09-19T06:10:56.100Z,13.1
2017-09-19T06:12:04.966Z,13.13
2017-09-19T06:13:13.833Z,13.14
2017-09-19T06:14:22.701Z,13.16
2017-09-19T06:15:31.568Z,13.17
2017-09-19T06:16:40.435Z,13.19
2017-09-19T06:17:49.304Z,13.25
2017-09-19T06:18:58.173Z,13.11
2017-09-19T06:20:07.363Z,13.2
2017-09-19T06:21:16.228Z,13.19
2017-09-19T06:22:25.252Z,13.25
2017-09-19T06:23:33.794Z,13.35
2017-09-19T06:24:43.312Z,13.19
2017-09-19T06:25:52.178Z,13.17
2017-09-19T06:27:00.720Z,13.21
2017-09-19T06:28:09.265Z,13.27
2017-09-19T06:29:17.805Z,13.2
2017-09-19T06:30:26.347Z,13.2
2017-09-19T06:31:34.894Z,13.21
2017-09-19T06:32:43.435Z,13.17
2017-09-19T06:33:51.976Z,13.16
2017-09-19T06:35:00.841Z,13.17
2017-09-19T06:36:00.265Z,13.17
2017-09-19T06:37:08.803Z,13.13
2017-09-19T06:38:18.316Z,13.16
2017-09-19T06:39:27.180Z,13.16
2017-09-19T06:40:36.297Z,13.17
2017-09-19T06:41:44.837Z,13.2
2017-09-19T06:42:53.701Z,13.29
2017-09-19T06:44:02.893Z,13.21
2017-09-19T06:45:11.437Z,13.29
2017-09-19T06:46:20.301Z,13.17
2017-09-19T06:47:29.172Z,13.31
2017-09-19T06:48:37.718Z,13.29
2017-09-19T06:49:46.763Z,13.28
2017-09-19T06:50:55.780Z,13.27
2017-09-19T06:52:05.144Z,13.32
2017-09-19T06:53:13.978Z,13.32
2017-09-19T06:54:23.221Z,13.32
2017-09-19T06:55:32.105Z,13.28
2017-09-19T06:56:42.542Z,13.21
2017-09-19T06:57:53.038Z,13.28
2017-09-19T06:59:03.410Z,13.31
2017-09-19T07:00:12.636Z,13.29
2017-09-19T07:01:21.649Z,13.35
2017-09-19T07:02:30.306Z,13.36
2017-09-19T07:03:39.553Z,13.45
2017-09-19T07:04:48.435Z,13.45
2017-09-19T07:05:57.621Z,13.47
2017-09-19T07:07:06.482Z,13.5
2017-09-19T07:08:15.350Z,13.47
2017-09-19T07:09:24.217Z,13.55
2017-09-19T07:10:32.761Z,13.4
2017-09-19T07:11:41.306Z,13.51
2017-09-19T07:12:50.491Z,13.54
2017-09-19T07:13:59.356Z,13.57
2017-09-19T07:15:08.222Z,13.6
2017-09-19T07:16:17.497Z,13.65
2017-09-19T07:17:26.037Z,13.54
2017-09-19T07:18:35.226Z,13.65
2017-09-19T07:19:43.778Z,13.63
2017-09-19T07:20:52.642Z,13.57
2017-09-19T07:22:01.188Z,13.62
2017-09-19T07:23:10.051Z,13.62
2017-09-19T07:24:18.595Z,13.58
2017-09-19T07:25:27.514Z,13.6
2017-09-19T07:26:36.546Z,13.62
2017-09-19T07:27:46.057Z,13.68
2017-09-19T07:28:54.600Z,13.65
2017-09-19T07:30:03.495Z,13.57
2017-09-19T07:31:13.011Z,13.68
2017-09-19T07:32:22.200Z,13.63
2017-09-19T07:33:31.517Z,13.75
2017-09-19T07:34:40.363Z,13.76
2017-09-19T07:35:49.388Z,13.73
2017-09-19T07:36:57.932Z,13.69
2017-09-19T07:38:06.799Z,13.76
2017-09-19T07:39:15.341Z,13.69
2017-09-19T07:40:23.888Z,13.73
2017-09-19T07:41:32.760Z,13.83
2017-09-19T07:42:41.628Z,13.73
2017-09-19T07:43:50.491Z,13.78
2017-09-19T07:44:59.036Z,13.75
2017-09-19T07:46:07.581Z,13.69
2017-09-19T07:47:16.771Z,13.79
2017-09-19T07:48:25.371Z,13.9
2017-09-19T07:49:34.244Z,13.84
2017-09-19T07:50:42.790Z,13.83
2017-09-19T07:51:51.988Z,13.9
2017-09-19T07:53:00.551Z,13.75
2017-09-19T07:54:09.430Z,13.79
2017-09-19T07:55:18.301Z,13.83
2017-09-19T07:56:26.850Z,13.88
2017-09-19T07:57:36.042Z,13.84
2017-09-19T07:58:44.920Z,13.75
2017-09-19T07:59:53.484Z,13.86
2017-09-19T08:01:02.354Z,13.76
2017-09-19T08:02:11.545Z,13.81
2017-09-19T08:03:20.091Z,13.81
2017-09-19T08:04:28.958Z,13.87
2017-09-19T08:05:37.832Z,13.78
2017-09-19T08:06:46.816Z,13.9
2017-09-19T08:07:55.823Z,13.83
2017-09-19T08:09:04.364Z,13.81
2017-09-19T08:10:13.236Z,13.86
2017-09-19T08:11:22.106Z,13.88
2017-09-19T08:12:31.613Z,13.78
2017-09-19T08:13:40.157Z,13.86
2017-09-19T08:14:48.704Z,13.84
2017-09-19T08:15:57.576Z,13.91
2017-09-19T08:17:07.090Z,13.83
2017-09-19T08:18:16.432Z,13.78
2017-09-19T08:19:25.456Z,13.79
2017-09-19T08:20:34.336Z,13.75
2017-09-19T08:21:43.337Z,13.75
2017-09-19T08:22:52.360Z,13.79
2017-09-19T08:24:00.905Z,13.79
2017-09-19T08:25:09.774Z,13.75
2017-09-19T08:26:18.637Z,13.73
2017-09-19T08:27:27.829Z,13.88
2017-09-19T08:28:37.017Z,13.76
2017-09-19T08:29:45.565Z,13.79
2017-09-19T08:30:54.105Z,13.84
2017-09-19T08:32:02.977Z,13.79
2017-09-19T08:33:11.522Z,13.9
2017-09-19T08:34:20.063Z,13.88
2017-09-19T08:35:28.942Z,13.93
2017-09-19T08:36:38.130Z,13.95
2017-09-19T08:37:46.672Z,13.93
2017-09-19T08:38:55.219Z,13.99
2017-09-19T08:40:04.086Z,13.97
2017-09-19T08:41:12.630Z,13.93
2017-09-19T08:42:21.242Z,13.93
2017-09-19T08:43:29.790Z,13.94
2017-09-19T08:44:38.658Z,14.02
2017-09-19T08:45:47.203Z,14.09
2017-09-19T08:46:55.750Z,14.19
2017-09-19T08:48:04.298Z,14.19
2017-09-19T08:49:13.199Z,14.26
2017-09-19T08:50:22.169Z,14.33
2017-09-19T08:51:30.712Z,14.3
2017-09-19T08:52:39.582Z,14.49
2017-09-19T08:53:48.126Z,14.45
2017-09-19T08:54:56.670Z,14.56
2017-09-19T08:56:05.534Z,14.53
2017-09-19T08:57:14.403Z,14.6
2017-09-19T08:58:22.947Z,14.57
2017-09-19T08:59:32.135Z,14.67
2017-09-19T09:00:40.999Z,14.61
2017-09-19T09:01:49.882Z,14.67
2017-09-19T09:02:58.994Z,14.69
2017-09-19T09:04:07.943Z,14.71
2017-09-19T09:05:16.704Z,14.66
2017-09-19T09:06:25.571Z,14.69
2017-09-19T09:07:34.762Z,14.8
2017-09-19T09:08:43.310Z,14.83
2017-09-19T09:09:52.184Z,14.77
2017-09-19T09:11:01.051Z,14.71
2017-09-19T09:12:09.596Z,14.77
2017-09-19T09:13:18.141Z,14.75
2017-09-19T09:14:27.016Z,14.77
2017-09-19T09:15:36.217Z,14.77
2017-09-19T09:16:45.111Z,14.8
2017-09-19T09:17:54.307Z,14.79
2017-09-19T09:19:03.179Z,14.64
2017-09-19T09:20:12.045Z,14.7
2017-09-19T09:21:21.127Z,14.51
2017-09-19T09:22:29.927Z,14.56
2017-09-19T09:23:39.128Z,14.48
2017-09-19T09:24:47.712Z,14.45
2017-09-19T09:25:57.375Z,14.42
2017-09-19T09:27:06.320Z,14.41
2017-09-19T09:28:16.217Z,14.41
2017-09-19T09:29:25.737Z,14.38
2017-09-19T09:30:35.269Z,14.39
2017-09-19T09:31:44.139Z,14.38
2017-09-19T09:32:52.683Z,14.38
2017-09-19T09:34:01.555Z,14.44
2017-09-19T09:35:10.422Z,14.41
2017-09-19T09:36:18.965Z,14.45
2017-09-19T09:37:28.079Z,14.41
2017-09-19T09:38:37.185Z,14.45
2017-09-19T09:39:46.383Z,14.44
2017-09-19T09:40:55.248Z,14.39
2017-09-19T09:42:04.141Z,14.48
2017-09-19T09:43:12.683Z,14.42
2017-09-19T09:44:21.228Z,14.45
2017-09-19T09:45:30.096Z,14.44
2017-09-19T09:46:38.638Z,14.39
2017-09-19T09:47:47.838Z,14.41
2017-09-19T09:48:57.031Z,14.36
2017-09-19T09:50:05.966Z,14.48
2017-09-19T09:51:14.537Z,14.51
2017-09-19T09:52:23.082Z,14.56
2017-09-19T09:53:31.627Z,14.51
2017-09-19T09:54:40.174Z,14.66
2017-09-19T09:55:48.718Z,14.79
2017-09-19T09:56:57.587Z,14.85
2017-09-19T09:58:06.454Z,14.86
2017-09-19T09:59:15.324Z,14.86
2017-09-19T10:00:24.192Z,15
2017-09-19T10:01:32.733Z,15
2017-09-19T10:02:41.604Z,15.02
2017-09-19T10:03:50.147Z,15.07
2017-09-19T10:04:59.020Z,15.02
2017-09-19T10:06:07.565Z,15.16
2017-09-19T10:07:16.111Z,15.08
2017-09-19T10:08:24.978Z,15.2
2017-09-19T10:09:34.176Z,15.25
2017-09-19T10:10:42.721Z,15.19
2017-09-19T10:11:51.267Z,15.15
2017-09-19T10:12:59.812Z,15.16
2017-09-19T10:14:08.360Z,15.26
2017-09-19T10:15:17.550Z,15.15
2017-09-19T10:16:27.312Z,15.08
2017-09-19T10:17:36.378Z,15.01
2017-09-19T10:18:45.275Z,14.86
2017-09-19T10:19:54.144Z,14.94
2017-09-19T10:21:03.015Z,14.82
2017-09-19T10:22:12.075Z,14.8
2017-09-19T10:23:21.409Z,14.82
2017-09-19T10:24:30.119Z,14.64
2017-09-19T10:25:38.831Z,14.67
2017-09-19T10:26:47.703Z,14.67
2017-09-19T10:27:56.442Z,14.6
2017-09-19T10:29:05.315Z,14.52
2017-09-19T10:30:14.502Z,14.48
2017-09-19T10:31:23.046Z,14.44
2017-09-19T10:32:31.915Z,14.41
2017-09-19T10:33:40.786Z,14.45
2017-09-19T10:34:49.654Z,14.3
2017-09-19T10:35:59.523Z,14.28
2017-09-19T10:37:08.063Z,14.28
2017-09-19T10:38:16.607Z,14.34
2017-09-19T10:39:25.470Z,14.3
2017-09-19T10:40:34.012Z,14.2
2017-09-19T10:41:42.557Z,14.23
2017-09-19T10:42:52.067Z,14.26
2017-09-19T10:44:00.615Z,14.3
2017-09-19T10:45:10.130Z,14.26
2017-09-19T10:46:18.999Z,14.26
2017-09-19T10:47:27.871Z,14.24
2017-09-19T10:48:36.739Z,14.27
2017-09-19T10:49:45.280Z,14.28
2017-09-19T10:50:53.829Z,14.3
2017-09-19T10:52:03.020Z,14.28
2017-09-19T10:53:11.888Z,14.34
2017-09-19T10:54:20.753Z,14.3
2017-09-19T10:55:29.618Z,14.42
2017-09-19T10:56:38.485Z,14.44
2017-09-19T10:57:47.674Z,14.49
2017-09-19T10:58:56.545Z,14.52
2017-09-19T11:00:05.409Z,14.53
2017-09-19T11:01:14.602Z,14.59
2017-09-19T11:02:23.795Z,14.67
2017-09-19T11:03:32.662Z,14.67
2017-09-19T11:04:41.209Z,14.71
2017-09-19T11:05:49.751Z,14.67
2017-09-19T11:06:58.627Z,14.69
2017-09-19T11:08:07.495Z,14.67
2017-09-19T11:09:17.005Z,14.7
2017-09-19T11:10:25.551Z,14.69
2017-09-19T11:11:34.094Z,14.74
2017-09-19T11:12:42.641Z,14.71
2017-09-19T11:13:51.843Z,14.66
2017-09-19T11:15:00.712Z,14.71
2017-09-19T11:16:09.257Z,14.66
2017-09-19T11:17:18.132Z,14.67
2017-09-19T11:18:27.028Z,14.71
2017-09-19T11:19:35.896Z,14.7
2017-09-19T11:20:44.441Z,14.71
2017-09-19T11:21:52.983Z,14.75
2017-09-19T11:23:02.170Z,14.86
2017-09-19T11:24:10.815Z,14.89
2017-09-19T11:25:19.782Z,14.97
2017-09-19T11:26:28.329Z,15.04
2017-09-19T11:27:36.873Z,14.97
2017-09-19T11:28:45.418Z,15.1
2017-09-19T11:29:53.966Z,15.19
2017-09-19T11:31:02.513Z,15.15
2017-09-19T11:32:11.708Z,15.13
2017-09-19T11:33:21.224Z,15.15
2017-09-19T11:34:29.774Z,15.16
2017-09-19T11:35:38.966Z,15.3
2017-09-19T11:36:47.523Z,15.31
2017-09-19T11:37:56.712Z,15.49
2017-09-19T11:39:05.582Z,15.56
2017-09-19T11:40:14.447Z,15.68
2017-09-19T11:41:23.312Z,15.7
2017-09-19T11:42:31.855Z,15.75
2017-09-19T11:43:40.401Z,15.68
2017-09-19T11:44:49.271Z,15.74
2017-09-19T11:45:58.143Z,15.84
2017-09-19T11:47:06.685Z,15.93
2017-09-19T11:48:15.552Z,15.99
2017-09-19T11:49:24.421Z,16.04
2017-09-19T11:50:32.966Z,16.21
2017-09-19T11:51:41.838Z,16.32
2017-09-19T11:52:50.384Z,16.25
2017-09-19T11:53:59.898Z,16.26
2017-09-19T11:55:09.091Z,16.32
2017-09-19T11:56:18.309Z,16.3
2017-09-19T11:57:26.855Z,16.44
2017-09-19T11:58:35.414Z,16.42
2017-09-19T11:59:44.606Z,16.49
2017-09-19T12:00:53.796Z,16.48
2017-09-19T12:02:03.321Z,16.51
2017-09-19T12:03:12.189Z,16.65
2017-09-19T12:04:21.061Z,16.66
2017-09-19T12:05:31.003Z,16.7
2017-09-19T12:06:39.551Z,16.67
2017-09-19T12:07:48.418Z,16.76
2017-09-19T12:08:57.625Z,16.65
2017-09-19T12:10:06.171Z,16.66
2017-09-19T12:11:14.714Z,16.66
2017-09-19T12:12:23.264Z,16.65
2017-09-19T12:13:31.810Z,16.49
2017-09-19T12:14:40.354Z,16.48
2017-09-19T12:15:49.652Z,16.45
2017-09-19T12:16:58.515Z,16.42
2017-09-19T12:18:07.708Z,16.42
2017-09-19T12:19:16.259Z,16.47
2017-09-19T12:20:25.131Z,16.45
2017-09-19T12:21:33.999Z,16.49
2017-09-19T12:22:42.565Z,16.48
2017-09-19T12:23:52.257Z,16.51
2017-09-19T12:25:00.803Z,16.65
2017-09-19T12:26:09.996Z,16.66
2017-09-19T12:27:18.541Z,16.7
2017-09-19T12:28:27.088Z,16.77
2017-09-19T12:29:36.282Z,16.9
2017-09-19T12:30:44.828Z,16.95
2017-09-19T12:31:53.696Z,16.99
2017-09-19T12:33:02.244Z,16.9
2017-09-19T12:34:11.110Z,16.95
2017-09-19T12:35:19.656Z,16.95
2017-09-19T12:36:28.531Z,16.9
2017-09-19T12:37:37.075Z,16.95
2017-09-19T12:38:46.599Z,16.94
2017-09-19T12:39:56.119Z,17.06
2017-09-19T12:41:04.989Z,17.09
2017-09-19T12:42:14.182Z,17.24
2017-09-19T12:43:23.373Z,17.32
2017-09-19T12:44:32.565Z,17.27
2017-09-19T12:45:41.758Z,17.27
2017-09-19T12:46:50.306Z,17.32
2017-09-19T12:47:59.177Z,17.31
2017-09-19T12:49:07.723Z,17.38
2017-09-19T12:50:16.594Z,17.3
2017-09-19T12:51:25.141Z,17.25
2017-09-19T12:52:33.683Z,17.25
2017-09-19T12:53:42.876Z,17.47
2017-09-19T12:54:51.420Z,17.4
2017-09-19T12:55:59.966Z,17.43
2017-09-19T12:57:08.511Z,17.45
2017-09-19T12:58:17.056Z,17.4
2017-09-19T12:59:25.932Z,17.47
2017-09-19T13:00:35.130Z,17.46
2017-09-19T13:01:44.258Z,17.54
2017-09-19T13:02:53.128Z,17.54
2017-09-19T13:04:01.674Z,17.5
2017-09-19T13:05:10.225Z,17.46
2017-09-19T13:06:18.770Z,17.38
2017-09-19T13:07:27.643Z,17.46
2017-09-19T13:08:36.188Z,17.4
2017-09-19T13:09:45.056Z,17.25
2017-09-19T13:10:53.926Z,17.21
2017-09-19T13:12:02.470Z,17.21
2017-09-19T13:13:11.336Z,17.05
2017-09-19T13:14:20.207Z,17.06
2017-09-19T13:15:28.860Z,17.05
2017-09-19T13:16:38.219Z,17.03
2017-09-19T13:17:46.811Z,17.1
2017-09-19T13:18:55.359Z,17.07
2017-09-19T13:20:04.592Z,17.18
2017-09-19T13:21:14.923Z,17.17
2017-09-19T13:22:24.237Z,17.18
2017-09-19T13:23:33.664Z,17.25
2017-09-19T13:24:42.534Z,17.3
2017-09-19T13:25:51.403Z,17.27
2017-09-19T13:27:00.274Z,17.18
2017-09-19T13:28:09.142Z,17.13
2017-09-19T13:29:17.688Z,17.12
2017-09-19T13:30:26.879Z,17.15
2017-09-19T13:31:36.393Z,17.06
2017-09-19T13:32:45.264Z,17
2017-09-19T13:33:54.132Z,17.03
2017-09-19T13:35:03.330Z,16.97
2017-09-19T13:36:12.202Z,16.9
2017-09-19T13:37:20.753Z,16.91
2017-09-19T13:38:29.719Z,16.97
2017-09-19T13:39:38.288Z,17
2017-09-19T13:40:47.444Z,16.95
2017-09-19T13:41:56.636Z,16.84
2017-09-19T13:43:05.502Z,16.88
2017-09-19T13:44:14.051Z,16.82
2017-09-19T13:45:22.602Z,16.94
2017-09-19T13:46:31.475Z,16.95
2017-09-19T13:47:40.023Z,16.94
2017-09-19T13:48:48.893Z,17.06
2017-09-19T13:49:57.772Z,17.09
2017-09-19T13:51:06.319Z,17.09
2017-09-19T13:52:15.509Z,17.18
2017-09-19T13:53:24.061Z,17.24
2017-09-19T13:54:33.054Z,17.21
2017-09-19T13:55:41.837Z,17.18
2017-09-19T13:56:50.382Z,17.1
2017-09-19T13:57:59.250Z,17
2017-09-19T13:59:07.797Z,17.03
2017-09-19T14:00:16.343Z,16.94
2017-09-19T14:01:25.214Z,16.91
2017-09-19T14:02:33.760Z,17.03
2017-09-19T14:03:42.303Z,16.95
2017-09-19T14:04:50.847Z,16.94
2017-09-19T14:06:00.364Z,17.03
2017-09-19T14:07:09.553Z,16.99
2017-09-19T14:08:18.101Z,16.85
2017-09-19T14:09:26.649Z,16.94
2017-09-19T14:10:35.518Z,17.02
2017-09-19T14:11:44.387Z,16.99
2017-09-19T14:12:53.586Z,16.95
2017-09-19T14:14:02.465Z,16.91
2017-09-19T14:15:11.338Z,16.87
2017-09-19T14:16:19.886Z,16.99
2017-09-19T14:17:28.772Z,17
2017-09-19T14:18:37.318Z,16.95
2017-09-19T14:19:46.197Z,17.07
2017-09-19T14:20:54.734Z,17.06
2017-09-19T14:22:03.281Z,17.03
2017-09-19T14:23:12.472Z,17.07
2017-09-19T14:24:21.023Z,17.05
2017-09-19T14:25:29.894Z,17.09
2017-09-19T14:26:39.085Z,17.12
2017-09-19T14:27:47.629Z,17.17
2017-09-19T14:28:56.495Z,17.1
2017-09-19T14:30:05.366Z,17.17
2017-09-19T14:31:14.593Z,17.05
2017-09-19T14:32:23.142Z,17.03
2017-09-19T14:33:32.408Z,17.07
2017-09-19T14:34:41.284Z,16.91
2017-09-19T14:35:49.828Z,16.91
2017-09-19T14:36:58.374Z,16.85
2017-09-19T14:38:06.920Z,16.85
2017-09-19T14:39:15.792Z,16.8
2017-09-19T14:40:24.340Z,16.72
2017-09-19T14:41:33.209Z,16.7
2017-09-19T14:42:41.754Z,16.66
2017-09-19T14:43:50.552Z,16.67
2017-09-19T14:44:59.420Z,16.69
2017-09-19T14:46:08.290Z,16.7
2017-09-19T14:47:17.164Z,16.67
2017-09-19T14:48:26.030Z,16.65
2017-09-19T14:49:34.575Z,16.62
2017-09-19T14:50:43.124Z,16.74